Latest Weather Observations for Little Bay

IDN60801

Issued at 9:02 pm EDT Monday 8 February 2016 (issued every 30 minutes, with the page automatically refreshed every 10 minutes)

About weather observations | Map of weather stations | Latest weather observations for NSW | Other Formats
Station Details ID: 066051 Name: LITTLE BAY (THE COAST GOLF CLUB) Lat: -33.98 Lon: 151.25 Height: 22.0 m
Data from the previous 72 hours. | See also: Recent months for locations in New South Wales
Date/Time
EDT
Temp
°C
App
Temp
°C
Dew
Point
Rel
Hum
%
Delta-T
°C
Wind Press
QNH
hPa
Press
MSL
hPa
Rain
since 9 am
mm
Dir
 
Spd
km/h
Gust
km/h
Spd
kts
Gust
kts
08/09:00pm - - - - - SE 11 13 6 7 - - -
08/08:30pm - - - - - SE 11 13 6 7 - - -
08/08:00pm - - - - - SE 11 15 6 8 - - -
08/07:30pm - - - - - SE 11 13 6 7 - - -
08/07:00pm - - - - - SE 11 15 6 8 - - -
08/06:30pm - - - - - SE 11 13 6 7 - - -
08/06:00pm - - - - - SE 13 15 7 8 - - -
08/05:30pm - - - - - SE 13 17 7 9 - - -
08/05:00pm - - - - - SE 13 17 7 9 - - -
08/04:30pm - - - - - SE 15 17 8 9 - - -
08/04:00pm - - - - - SE 15 19 8 10 - - -
08/03:30pm - - - - - SE 15 19 8 10 - - -
08/03:00pm - - - - - SE 13 17 7 9 - - -
08/02:30pm - - - - - SE 11 15 6 8 - - -
08/02:00pm - - - - - SE 13 15 7 8 - - -
08/01:30pm - - - - - SSE 13 17 7 9 - - -
08/01:00pm - - - - - SE 13 15 7 8 - - -
08/12:30pm - - - - - SE 11 15 6 8 - - -
08/12:00pm - - - - - SSE 11 15 6 8 - - -
08/11:30am - - - - - S 13 17 7 9 - - -
08/11:00am - - - - - S 13 19 7 10 - - -
08/10:30am - - - - - SSW 15 20 8 11 - - -
08/10:00am - - - - - SSW 13 19 7 10 - - -
08/09:30am - - - - - SSW 15 20 8 11 - - -
08/09:00am - - - - - S 13 17 7 9 - - -
08/08:30am - - - - - SSW 11 17 6 9 - - -
08/08:00am - - - - - WSW 9 11 5 6 - - -
08/07:30am - - - - - WSW 9 11 5 6 - - -
08/07:00am - - - - - WSW 9 13 5 7 - - -
08/06:30am - - - - - WSW 9 11 5 6 - - -
08/06:00am - - - - - WSW 9 11 5 6 - - -
08/05:30am - - - - - WSW 9 11 5 6 - - -
08/05:00am - - - - - WSW 9 13 5 7 - - -
08/04:30am - - - - - WSW 7 9 4 5 - - -
08/04:00am - - - - - WSW 9 11 5 6 - - -
08/03:30am - - - - - WSW 7 11 4 6 - - -
08/03:00am - - - - - SW 9 13 5 7 - - -
08/02:30am - - - - - WSW 7 7 4 4 - - -
08/02:00am - - - - - WSW 6 6 3 3 - - -
08/01:30am - - - - - SW 6 6 3 3 - - -
08/01:00am - - - - - SW 6 6 3 3 - - -
08/12:30am - - - - - SW 4 6 2 3 - - -
08/12:00am - - - - - CALM 0 0 0 0 - - -
 
Date/Time
EDT
Temp
°C
App
Temp
°C
Dew
Point
Rel
Hum
%
Delta-T
°C
Wind Press
QNH
hPa
Press
MSL
hPa
Rain
since 9 am
mm
Dir
 
Spd
km/h
Gust
km/h
Spd
kts
Gust
kts
07/11:30pm - - - - - CALM 0 0 0 0 - - -
07/11:00pm - - - - - CALM 0 0 0 0 - - -
07/10:30pm - - - - - CALM 0 2 0 1 - - -
07/10:00pm - - - - - CALM 0 0 0 0 - - -
07/09:30pm - - - - - CALM 0 0 0 0 - - -
07/09:00pm - - - - - SE 2 6 1 3 - - -
07/08:30pm - - - - - ESE 6 6 3 3 - - -
07/08:00pm - - - - - ESE 7 9 4 5 - - -
07/07:30pm - - - - - SE 7 9 4 5 - - -
07/07:00pm - - - - - ESE 9 11 5 6 - - -
07/06:30pm - - - - - ESE 9 11 5 6 - - -
07/06:00pm - - - - - ESE 11 13 6 7 - - -
07/05:30pm - - - - - ESE 13 15 7 8 - - -
07/05:00pm - - - - - ESE 13 17 7 9 - - -
07/04:30pm - - - - - ESE 15 19 8 10 - - -
07/04:00pm - - - - - ESE 13 17 7 9 - - -
07/03:30pm - - - - - ESE 15 19 8 10 - - -
07/03:00pm - - - - - SE 15 17 8 9 - - -
07/02:30pm - - - - - SSE 17 20 9 11 - - -
07/02:00pm - - - - - SSE 17 20 9 11 - - -
07/01:30pm - - - - - S 19 24 10 13 - - -
07/01:00pm - - - - - S 13 20 7 11 - - -
07/12:30pm - - - - - SSW 20 24 11 13 - - -
07/12:00pm - - - - - S 19 24 10 13 - - -
07/11:30am - - - - - S 19 26 10 14 - - -
07/11:00am - - - - - S 15 22 8 12 - - -
07/10:30am - - - - - SSW 19 24 10 13 - - -
07/10:00am - - - - - S 17 24 9 13 - - -
07/09:30am - - - - - SE 9 15 5 8 - - -
07/09:00am - - - - - SE 11 17 6 9 - - -
07/08:30am - - - - - SE 13 17 7 9 - - -
07/08:00am - - - - - SE 11 15 6 8 - - -
07/07:30am - - - - - SE 13 17 7 9 - - -
07/07:00am - - - - - ESE 13 17 7 9 - - -
07/06:30am - - - - - SE 13 17 7 9 - - -
07/06:00am - - - - - SE 13 15 7 8 - - -
07/05:30am - - - - - SE 13 17 7 9 - - -
07/05:00am - - - - - SE 13 17 7 9 - - -
07/04:30am - - - - - SE 17 22 9 12 - - -
07/04:00am - - - - - ESE 15 19 8 10 - - -
07/03:30am - - - - - SE 11 13 6 7 - - -
07/03:00am - - - - - SE 13 17 7 9 - - -
07/02:30am - - - - - SE 13 17 7 9 - - -
07/02:00am - - - - - SE 15 19 8 10 - - -
07/01:30am - - - - - SE 13 17 7 9 - - -
07/01:00am - - - - - ESE 13 17 7 9 - - -
07/12:30am - - - - - ESE 13 17 7 9 - - -
07/12:00am - - - - - SE 13 15 7 8 - - -
 
Date/Time
EDT
Temp
°C
App
Temp
°C
Dew
Point
Rel
Hum
%
Delta-T
°C
Wind Press
QNH
hPa
Press
MSL
hPa
Rain
since 9 am
mm
Dir
 
Spd
km/h
Gust
km/h
Spd
kts
Gust
kts
06/11:30pm - - - - - SE 15 19 8 10 - - -
06/11:00pm - - - - - SE 19 22 10 12 - - -
06/10:30pm - - - - - ESE 17 22 9 12 - - -
06/10:00pm - - - - - ESE 19 24 10 13 - - -
06/09:30pm - - - - - ESE 19 24 10 13 - - -
06/09:00pm - - - - - ESE 17 20 9 11 - - -
06/08:30pm - - - - - SE 17 20 9 11 - - -
06/08:00pm - - - - - ESE 17 22 9 12 - - -
06/07:30pm - - - - - ESE 17 20 9 11 - - -
06/07:00pm - - - - - ESE 19 24 10 13 - - -
06/06:30pm - - - - - ESE 20 24 11 13 - - -
06/06:00pm - - - - - ESE 20 28 11 15 - - -
06/05:30pm - - - - - SE 22 28 12 15 - - -
06/05:00pm - - - - - ESE 19 24 10 13 - - -
06/04:30pm - - - - - SE 17 20 9 11 - - -
06/04:00pm - - - - - ESE 20 24 11 13 - - -
06/03:30pm - - - - - SE 17 24 9 13 - - -
06/03:00pm - - - - - ESE 19 24 10 13 - - -
06/02:30pm - - - - - SE 17 24 9 13 - - -
06/02:00pm - - - - - ESE 17 20 9 11 - - -
06/01:30pm - - - - - ESE 17 20 9 11 - - -
06/01:00pm - - - - - ESE 19 24 10 13 - - -
06/12:30pm - - - - - ESE 19 24 10 13 - - -
06/12:00pm - - - - - ESE 20 26 11 14 - - -
06/11:30am - - - - - SE 22 33 12 18 - - -
06/11:00am - - - - - SE 22 28 12 15 - - -
06/10:30am - - - - - SE 20 28 11 15 - - -
06/10:00am - - - - - SE 13 24 7 13 - - -
06/09:30am - - - - - SSE 13 24 7 13 - - -
06/09:00am - - - - - SSE 20 30 11 16 - - -
06/08:30am - - - - - SE 22 28 12 15 - - -
06/08:00am - - - - - ESE 33 43 18 23 - - -
06/07:30am - - - - - SE 20 32 11 17 - - -
06/07:00am - - - - - SSE 24 33 13 18 - - -
06/06:30am - - - - - SSE 26 35 14 19 - - -
06/06:00am - - - - - SSE 26 32 14 17 - - -
06/05:30am - - - - - SSE 24 32 13 17 - - -
06/05:00am - - - - - SE 28 35 15 19 - - -
06/04:30am - - - - - SSE 20 30 11 16 - - -
06/04:00am - - - - - S 22 30 12 16 - - -
06/03:30am - - - - - S 24 35 13 19 - - -
06/03:00am - - - - - SSE 28 39 15 21 - - -
06/02:30am - - - - - SSE 28 35 15 19 - - -
06/02:00am - - - - - SE 28 35 15 19 - - -
06/01:30am - - - - - SSE 26 33 14 18 - - -
06/01:00am - - - - - SE 30 39 16 21 - - -
06/12:30am - - - - - SSE 30 39 16 21 - - -
06/12:00am - - - - - SSE 28 39 15 21 - - -
 
Date/Time
EDT
Temp
°C
App
Temp
°C
Dew
Point
Rel
Hum
%
Delta-T
°C
Wind Press
QNH
hPa
Press
MSL
hPa
Rain
since 9 am
mm
Dir
 
Spd
km/h
Gust
km/h
Spd
kts
Gust
kts
05/11:30pm - - - - - SSE 28 37 15 20 - - -
05/11:00pm - - - - - SSE 28 41 15 22 - - -
05/10:30pm - - - - - SSE 28 37 15 20 - - -
05/10:00pm - - - - - SSE 28 37 15 20 - - -
05/09:30pm - - - - - SSE 30 37 16 20 - - -

Other Formats:

Comma delimited format used in spreadsheet applications
http://www.bom.gov.au/fwo/IDN60801/IDN60801.94780.axf

JavaScript Object Notation format (JSON) in row-major order
http://www.bom.gov.au/fwo/IDN60801/IDN60801.94780.json